Detalii statie PROACUA CEFA [00001987]

Toti senzorii

Date Temperatura solului [C]Precipitatii [mm]Voltaj baterie [mV]Leaf Wetness [Min]HC Air temperature [C]HC Relative humidity [%]Punctul de roua [C]
medieminmaxsumaultimatimpmedieminmaxmediemediemin
2019-06-15 17:00:00 0 6600 34.02 33.41 34.69 0 0 0
2019-06-15 18:00:00 0 6600 33.14 33.06 33.23 0 0 0
2019-06-15 19:00:00 0 6600 31.29 30.95 32 0 0 0
2019-06-15 20:00:00 0 6600 29.88 29.1 31.24 0 0 0
2019-06-15 21:00:00 0 6610 26.74 25.2 28.91 0 0 0
2019-06-15 22:00:00 0 6600 23.96 22.99 25.04 0 0 0
2019-06-15 23:00:00 0 6600 22.55 22.12 22.91 0 0 0
2019-06-16 00:00:00 0 6590 22.51 21.89 23.01 0 0 0
2019-06-16 01:00:00 0 6590 21.59 21.16 22.99 0 0 0
2019-06-16 02:00:00 0 6590 21.18 20.97 21.48 0 0 0
2019-06-16 03:00:00 0 6590 20.93 20.76 21.14 0 0 0
2019-06-16 04:00:00 0 6590 20.46 19.76 21 0 0 0
2019-06-16 05:00:00 0 6590 20 19.33 20.55 0 0 0
2019-06-16 06:00:00 0 6630 19.55 19.14 20.41 0 0 0
2019-06-16 07:00:00 0 6738 22.21 20.67 24.05 0 0 0
2019-06-16 08:00:00 0 6748 25.04 24.12 26.17 0 0 0
2019-06-16 09:00:00 0 6748 27.11 25.81 27.94 0 0 0
2019-06-16 10:00:00 0 6718 28.98 27.74 30.23 0 0 0
2019-06-16 11:00:00 0 6698 31.02 29.98 31.86 0 0 0
2019-06-16 12:00:00 0 6678 31.56 30.87 32.14 0 0 0
2019-06-16 13:00:00 0 6640 32.94 32.35 33.82 0 0 0
2019-06-16 14:00:00 0 6630 33.59 32.69 34.41 0 0 0
2019-06-16 15:00:00 0 6640 60 33.86 33.03 34.61 0 0 0
2019-06-16 16:00:00 0.2 6640 32.48 29.71 34.24 0 0 0
2019-06-16 17:00:00 0 6620 33.37 33.05 33.6 0 0 0
2019-06-16 18:00:00 0 6630 31.4 30.57 33.26 0 0 0
2019-06-16 19:00:00 0 6620 29.43 27.74 31.63 0 0 0
2019-06-16 20:00:00 0 6620 26.3 24.35 27.63 0 0 0
2019-06-16 21:00:00 0 6620 23.36 22.93 24.26 0 0 0
2019-06-16 22:00:00 0 6610 22.19 21.31 23 0 0 0
2019-06-16 23:00:00 6.6 6610 19.79 18.74 21.74 0 0 0
2019-06-17 00:00:00 3 6620 19.01 18.7 19.19 0 0 0
2019-06-17 01:00:00 2.8 6620 19.21 19.13 19.27 0 0 0
2019-06-17 02:00:00 0.6 6610 19.65 19.37 20.22 0 0 0
2019-06-17 03:00:00 0.2 6610 19.46 19.36 19.67 0 0 0
2019-06-17 04:00:00 0 6610 19.28 18.84 19.56 0 0 0
2019-06-17 05:00:00 0 6600 18.96 18.87 19.13 0 0 0
2019-06-17 06:00:00 0 6678 19.5 19.07 20.44 0 0 0
2019-06-17 07:00:00 0 6678 20.62 20.3 20.94 0 0 0
2019-06-17 08:00:00 0 6806 21.57 20.66 21.96 0 0 0
2019-06-17 09:00:00 0 6786 22.96 22.3 23.61 0 0 0
2019-06-17 10:00:00 0 6766 23.8 22.76 24.31 0 0 0
2019-06-17 11:00:00 0 6738 23.49 23 23.85 0 0 0
2019-06-17 12:00:00 0 6718 24 23.33 24.63 0 0 0
2019-06-17 13:00:00 0 6718 24.79 23.99 25.33 0 0 0
2019-06-17 14:00:00 0 6678 25.92 25.03 26.86 0 0 0
2019-06-17 15:00:00 0 6660 27.17 26.61 28.33 0 0 0
2019-06-17 16:00:00 0 6660 27.86 27.31 28.27 0 0 0